sensor_id;sensor_type;location;lat;lon;timestamp;pressure;altitude;pressure_sealevel;temperature;humidity
71476;BME280;59286;59.274;17.974;2022-10-23T00:00:21;100580.09;;;7.00;89.87
71476;BME280;59286;59.274;17.974;2022-10-23T00:02:53;100625.72;;;7.36;89.46
71476;BME280;59286;59.274;17.974;2022-10-23T00:05:19;100557.69;;;6.99;88.90
71476;BME280;59286;59.274;17.974;2022-10-23T00:07:56;100591.66;;;7.23;89.14
71476;BME280;59286;59.274;17.974;2022-10-23T00:10:23;100583.63;;;7.19;89.16
71476;BME280;59286;59.274;17.974;2022-10-23T00:12:49;100600.75;;;7.30;89.05
71476;BME280;59286;59.274;17.974;2022-10-23T00:15:17;100570.13;;;7.07;88.81
71476;BME280;59286;59.274;17.974;2022-10-23T00:17:43;100585.25;;;7.10;89.36
71476;BME280;59286;59.274;17.974;2022-10-23T00:20:09;100562.94;;;6.94;89.25
71476;BME280;59286;59.274;17.974;2022-10-23T00:22:36;100578.28;;;7.01;89.27
71476;BME280;59286;59.274;17.974;2022-10-23T00:25:06;100569.19;;;6.93;89.35
71476;BME280;59286;59.274;17.974;2022-10-23T00:27:32;100558.31;;;6.86;89.00
71476;BME280;59286;59.274;17.974;2022-10-23T00:29:57;100591.06;;;6.97;89.22
71476;BME280;59286;59.274;17.974;2022-10-23T00:32:23;100560.91;;;6.81;89.23
71476;BME280;59286;59.274;17.974;2022-10-23T00:34:48;100577.09;;;6.78;89.57
71476;BME280;59286;59.274;17.974;2022-10-23T00:37:14;100590.31;;;6.86;89.52
71476;BME280;59286;59.274;17.974;2022-10-23T00:39:40;100557.59;;;6.70;89.27
71476;BME280;59286;59.274;17.974;2022-10-23T00:42:08;100576.06;;;6.74;89.32
71476;BME280;59286;59.274;17.974;2022-10-23T00:46:59;100589.66;;;6.66;89.60
71476;BME280;59286;59.274;17.974;2022-10-23T00:49:25;100569.97;;;6.40;89.47
71476;BME280;59286;59.274;17.974;2022-10-23T00:51:55;100621.41;;;6.73;89.39
71476;BME280;59286;59.274;17.974;2022-10-23T00:54:26;100607.41;;;6.59;89.86
71476;BME280;59286;59.274;17.974;2022-10-23T00:56:59;100580.94;;;6.37;89.61
71476;BME280;59286;59.274;17.974;2022-10-23T00:59:25;100585.91;;;6.33;90.15
71476;BME280;59286;59.274;17.974;2022-10-23T01:01:51;100629.00;;;6.59;90.53
71476;BME280;59286;59.274;17.974;2022-10-23T01:04:17;100601.22;;;6.45;89.71
71476;BME280;59286;59.274;17.974;2022-10-23T01:09:36;100573.19;;;6.12;89.48
71476;BME280;59286;59.274;17.974;2022-10-23T01:12:15;100590.13;;;6.14;89.34
71476;BME280;59286;59.274;17.974;2022-10-23T01:17:47;100633.06;;;6.07;89.97
71476;BME280;59286;59.274;17.974;2022-10-23T01:23:21;100575.88;;;5.66;89.76
71476;BME280;59286;59.274;17.974;2022-10-23T01:26:46;100610.72;;;5.85;89.45
71476;BME280;59286;59.274;17.974;2022-10-23T01:28:52;100578.47;;;5.61;89.53
71476;BME280;59286;59.274;17.974;2022-10-23T01:31:41;100632.81;;;5.93;90.06
71476;BME280;59286;59.274;17.974;2022-10-23T01:34:15;100601.34;;;5.69;90.27
71476;BME280;59286;59.274;17.974;2022-10-23T01:36:46;100611.47;;;5.71;90.65
71476;BME280;59286;59.274;17.974;2022-10-23T01:39:40;100656.22;;;6.03;91.25
71476;BME280;59286;59.274;17.974;2022-10-23T01:42:11;100622.16;;;5.89;91.30
71476;BME280;59286;59.274;17.974;2022-10-23T01:44:51;100630.50;;;5.97;90.96
71476;BME280;59286;59.274;17.974;2022-10-23T01:47:25;100614.88;;;5.86;90.82
71476;BME280;59286;59.274;17.974;2022-10-23T01:49:52;100593.03;;;5.77;90.46
71476;BME280;59286;59.274;17.974;2022-10-23T01:52:18;100589.16;;;5.85;90.23
71476;BME280;59286;59.274;17.974;2022-10-23T01:54:46;100617.47;;;6.02;90.31
71476;BME280;59286;59.274;17.974;2022-10-23T01:57:15;100574.03;;;5.82;90.18
71476;BME280;59286;59.274;17.974;2022-10-23T01:59:50;100610.16;;;5.99;90.19
71476;BME280;59286;59.274;17.974;2022-10-23T02:02:18;100648.66;;;6.17;90.46
71476;BME280;59286;59.274;17.974;2022-10-23T02:05:08;100612.78;;;5.99;90.38
71476;BME280;59286;59.274;17.974;2022-10-23T02:07:35;100623.97;;;6.04;90.32
71476;BME280;59286;59.274;17.974;2022-10-23T02:10:04;100612.22;;;6.12;90.11
71476;BME280;59286;59.274;17.974;2022-10-23T02:12:49;100644.94;;;6.38;90.11
71476;BME280;59286;59.274;17.974;2022-10-23T02:15:27;100603.41;;;6.03;88.84
71476;BME280;59286;59.274;17.974;2022-10-23T02:18:04;100631.47;;;6.26;89.53
71476;BME280;59286;59.274;17.974;2022-10-23T02:20:39;100590.69;;;5.96;89.33
71476;BME280;59286;59.274;17.974;2022-10-23T02:23:21;100652.25;;;6.31;89.44
71476;BME280;59286;59.274;17.974;2022-10-23T02:25:55;100640.84;;;6.12;88.01
71476;BME280;59286;59.274;17.974;2022-10-23T02:28:26;100617.50;;;5.97;88.01
71476;BME280;59286;59.274;17.974;2022-10-23T02:30:54;100605.50;;;5.85;88.33
71476;BME280;59286;59.274;17.974;2022-10-23T02:33:22;100628.91;;;6.11;87.91
71476;BME280;59286;59.274;17.974;2022-10-23T02:35:50;100631.00;;;6.04;87.17
71476;BME280;59286;59.274;17.974;2022-10-23T02:38:32;100658.81;;;6.28;88.01
71476;BME280;59286;59.274;17.974;2022-10-23T02:41:12;100660.34;;;6.29;87.71
71476;BME280;59286;59.274;17.974;2022-10-23T02:46:51;100649.94;;;6.19;87.03
71476;BME280;59286;59.274;17.974;2022-10-23T02:50:09;100645.00;;;6.18;87.38
71476;BME280;59286;59.274;17.974;2022-10-23T02:52:34;100596.44;;;5.83;88.08
71476;BME280;59286;59.274;17.974;2022-10-23T02:55:13;100591.22;;;5.78;88.54
71476;BME280;59286;59.274;17.974;2022-10-23T02:57:45;100609.41;;;5.93;88.46
71476;BME280;59286;59.274;17.974;2022-10-23T03:00:15;100581.06;;;5.86;87.37
71476;BME280;59286;59.274;17.974;2022-10-23T03:02:59;100614.09;;;6.01;88.03
71476;BME280;59286;59.274;17.974;2022-10-23T03:05:29;100594.81;;;5.82;87.91
71476;BME280;59286;59.274;17.974;2022-10-23T03:07:55;100623.19;;;5.99;87.50
71476;BME280;59286;59.274;17.974;2022-10-23T03:10:21;100598.72;;;5.74;87.53
71476;BME280;59286;59.274;17.974;2022-10-23T03:12:47;100624.25;;;5.93;87.09
71476;BME280;59286;59.274;17.974;2022-10-23T03:15:14;100670.00;;;6.24;86.50
71476;BME280;59286;59.274;17.974;2022-10-23T03:17:40;100633.84;;;5.97;87.07
71476;BME280;59286;59.274;17.974;2022-10-23T03:20:06;100599.78;;;5.73;86.25
71476;BME280;59286;59.274;17.974;2022-10-23T03:22:32;100640.63;;;5.98;86.39
71476;BME280;59286;59.274;17.974;2022-10-23T03:24:58;100632.31;;;5.86;86.65
71476;BME280;59286;59.274;17.974;2022-10-23T03:27:23;100640.63;;;5.98;86.48
71476;BME280;59286;59.274;17.974;2022-10-23T03:29:49;100632.56;;;5.95;86.03
71476;BME280;59286;59.274;17.974;2022-10-23T03:32:14;100599.53;;;5.75;86.72
71476;BME280;59286;59.274;17.974;2022-10-23T03:34:42;100603.19;;;5.74;87.02
71476;BME280;59286;59.274;17.974;2022-10-23T03:37:07;100626.84;;;5.87;86.67
71476;BME280;59286;59.274;17.974;2022-10-23T03:39:33;100642.72;;;5.96;87.27
71476;BME280;59286;59.274;17.974;2022-10-23T03:42:01;100640.09;;;5.81;86.40
71476;BME280;59286;59.274;17.974;2022-10-23T03:44:26;100610.19;;;5.48;87.15
71476;BME280;59286;59.274;17.974;2022-10-23T03:46:52;100672.59;;;5.68;86.44
71476;BME280;59286;59.274;17.974;2022-10-23T03:49:17;100640.34;;;5.54;86.57
71476;BME280;59286;59.274;17.974;2022-10-23T03:51:43;100629.66;;;5.41;86.21
71476;BME280;59286;59.274;17.974;2022-10-23T03:54:11;100596.13;;;4.99;86.89
71476;BME280;59286;59.274;17.974;2022-10-23T03:56:36;100604.66;;;4.94;86.78
71476;BME280;59286;59.274;17.974;2022-10-23T03:59:02;100639.25;;;5.10;87.26
71476;BME280;59286;59.274;17.974;2022-10-23T04:01:27;100618.16;;;4.86;87.41
71476;BME280;59286;59.274;17.974;2022-10-23T04:03:53;100622.03;;;4.84;86.93
71476;BME280;59286;59.274;17.974;2022-10-23T04:06:21;100622.78;;;4.79;87.34
71476;BME280;59286;59.274;17.974;2022-10-23T04:08:47;100652.94;;;4.90;87.55
71476;BME280;59286;59.274;17.974;2022-10-23T04:11:12;100648.00;;;4.79;87.67
71476;BME280;59286;59.274;17.974;2022-10-23T04:13:37;100650.56;;;4.74;87.55
71476;BME280;59286;59.274;17.974;2022-10-23T04:16:03;100629.47;;;4.55;88.05
71476;BME280;59286;59.274;17.974;2022-10-23T04:18:28;100628.63;;;4.45;88.48
71476;BME280;59286;59.274;17.974;2022-10-23T04:20:54;100613.53;;;4.32;88.40
71476;BME280;59286;59.274;17.974;2022-10-23T04:23:19;100614.03;;;4.29;88.54
71476;BME280;59286;59.274;17.974;2022-10-23T04:25:45;100671.31;;;4.64;88.56
71476;BME280;59286;59.274;17.974;2022-10-23T04:28:11;100619.69;;;4.21;88.45
71476;BME280;59286;59.274;17.974;2022-10-23T04:30:36;100620.44;;;4.16;88.69
71476;BME280;59286;59.274;17.974;2022-10-23T04:33:02;100626.94;;;4.19;88.41
71476;BME280;59286;59.274;17.974;2022-10-23T04:35:27;100625.41;;;4.18;88.23
71476;BME280;59286;59.274;17.974;2022-10-23T04:37:53;100640.88;;;4.08;89.36
71476;BME280;59286;59.274;17.974;2022-10-23T04:40:18;100677.31;;;4.28;89.34
71476;BME280;59286;59.274;17.974;2022-10-23T04:42:43;100659.06;;;4.13;89.19
71476;BME280;59286;59.274;17.974;2022-10-23T04:45:09;100678.84;;;4.24;89.48
71476;BME280;59286;59.274;17.974;2022-10-23T04:47:35;100648.84;;;3.96;90.01
71476;BME280;59286;59.274;17.974;2022-10-23T04:50:01;100674.25;;;3.99;89.83
71476;BME280;59286;59.274;17.974;2022-10-23T04:52:27;100668.75;;;3.85;90.06
71476;BME280;59286;59.274;17.974;2022-10-23T04:54:52;100673.97;;;3.95;89.79
71476;BME280;59286;59.274;17.974;2022-10-23T04:57:18;100631.25;;;3.66;89.16
71476;BME280;59286;59.274;17.974;2022-10-23T04:59:43;100647.53;;;3.62;89.76
71476;BME280;59286;59.274;17.974;2022-10-23T05:02:08;100677.53;;;3.84;89.39
71476;BME280;59286;59.274;17.974;2022-10-23T05:04:34;100691.59;;;3.93;89.10
71476;BME280;59286;59.274;17.974;2022-10-23T05:07:01;100689.22;;;3.87;88.90
71476;BME280;59286;59.274;17.974;2022-10-23T05:09:26;100676.34;;;3.65;89.53
71476;BME280;59286;59.274;17.974;2022-10-23T05:11:51;100640.53;;;3.31;89.70
71476;BME280;59286;59.274;17.974;2022-10-23T05:14:17;100668.91;;;3.47;89.41
71476;BME280;59286;59.274;17.974;2022-10-23T05:16:48;100659.00;;;3.39;90.15
71476;BME280;59286;59.274;17.974;2022-10-23T05:19:20;100643.06;;;3.26;90.21
71476;BME280;59286;59.274;17.974;2022-10-23T05:21:47;100667.50;;;3.35;89.86
71476;BME280;59286;59.274;17.974;2022-10-23T05:24:13;100669.88;;;3.41;89.43
71476;BME280;59286;59.274;17.974;2022-10-23T05:26:38;100694.56;;;3.49;90.00
71476;BME280;59286;59.274;17.974;2022-10-23T05:29:04;100678.94;;;3.39;89.48
71476;BME280;59286;59.274;17.974;2022-10-23T05:31:30;100698.38;;;3.41;90.42
71476;BME280;59286;59.274;17.974;2022-10-23T05:33:58;100667.84;;;3.17;90.03
71476;BME280;59286;59.274;17.974;2022-10-23T05:36:24;100666.53;;;3.14;90.07
71476;BME280;59286;59.274;17.974;2022-10-23T05:38:54;100688.91;;;3.25;89.93
71476;BME280;59286;59.274;17.974;2022-10-23T05:41:19;100690.00;;;3.29;90.72
71476;BME280;59286;59.274;17.974;2022-10-23T05:43:45;100668.56;;;3.12;90.69
71476;BME280;59286;59.274;17.974;2022-10-23T05:46:10;100689.16;;;3.24;90.85
71476;BME280;59286;59.274;17.974;2022-10-23T05:48:36;100671.19;;;3.17;91.04
71476;BME280;59286;59.274;17.974;2022-10-23T05:51:07;100693.41;;;3.35;91.24
71476;BME280;59286;59.274;17.974;2022-10-23T05:53:33;100679.59;;;3.24;91.62
71476;BME280;59286;59.274;17.974;2022-10-23T05:56:05;100728.41;;;3.64;91.53
71476;BME280;59286;59.274;17.974;2022-10-23T05:58:32;100747.09;;;3.92;91.42
71476;BME280;59286;59.274;17.974;2022-10-23T06:01:05;100689.41;;;3.49;91.75
71476;BME280;59286;59.274;17.974;2022-10-23T06:03:31;100682.94;;;3.51;91.75
71476;BME280;59286;59.274;17.974;2022-10-23T06:05:56;100718.97;;;3.79;91.27
71476;BME280;59286;59.274;17.974;2022-10-23T06:08:22;100691.38;;;3.63;91.33
71476;BME280;59286;59.274;17.974;2022-10-23T06:10:48;100713.25;;;3.77;91.04
71476;BME280;59286;59.274;17.974;2022-10-23T06:13:14;100744.28;;;3.99;91.05
71476;BME280;59286;59.274;17.974;2022-10-23T06:15:41;100732.03;;;3.89;90.74
71476;BME280;59286;59.274;17.974;2022-10-23T06:18:09;100727.91;;;3.93;90.31
71476;BME280;59286;59.274;17.974;2022-10-23T06:20:35;100726.88;;;3.94;90.28
71476;BME280;59286;59.274;17.974;2022-10-23T06:23:02;100727.41;;;3.97;90.29
71476;BME280;59286;59.274;17.974;2022-10-23T06:25:28;100755.00;;;4.08;90.21
71476;BME280;59286;59.274;17.974;2022-10-23T06:27:53;100739.06;;;3.94;90.36
71476;BME280;59286;59.274;17.974;2022-10-23T06:30:19;100738.25;;;3.93;90.42
71476;BME280;59286;59.274;17.974;2022-10-23T06:32:44;100759.31;;;3.97;90.37
71476;BME280;59286;59.274;17.974;2022-10-23T06:35:09;100733.00;;;3.83;90.14
71476;BME280;59286;59.274;17.974;2022-10-23T06:37:37;100779.84;;;4.04;90.67
71476;BME280;59286;59.274;17.974;2022-10-23T06:40:04;100735.56;;;3.78;90.20
71476;BME280;59286;59.274;17.974;2022-10-23T06:42:29;100766.84;;;3.99;90.85
71476;BME280;59286;59.274;17.974;2022-10-23T06:44:55;100752.63;;;3.74;90.27
71476;BME280;59286;59.274;17.974;2022-10-23T06:47:21;100741.81;;;3.82;90.18
71476;BME280;59286;59.274;17.974;2022-10-23T06:49:46;100734.78;;;3.78;89.79
71476;BME280;59286;59.274;17.974;2022-10-23T06:52:14;100769.75;;;4.07;90.21
71476;BME280;59286;59.274;17.974;2022-10-23T06:54:39;100737.16;;;3.84;89.54
71476;BME280;59286;59.274;17.974;2022-10-23T06:57:10;100772.16;;;4.14;89.96
71476;BME280;59286;59.274;17.974;2022-10-23T06:59:35;100745.59;;;4.02;89.65
71476;BME280;59286;59.274;17.974;2022-10-23T07:02:02;100817.03;;;4.46;89.91
71476;BME280;59286;59.274;17.974;2022-10-23T07:04:27;100742.28;;;4.06;90.40
71476;BME280;59286;59.274;17.974;2022-10-23T07:06:56;100765.25;;;4.24;89.96
71476;BME280;59286;59.274;17.974;2022-10-23T07:09:22;100756.94;;;4.27;89.51
71476;BME280;59286;59.274;17.974;2022-10-23T07:11:47;100774.41;;;4.37;88.51
71476;BME280;59286;59.274;17.974;2022-10-23T07:14:13;100764.03;;;4.37;88.91
71476;BME280;59286;59.274;17.974;2022-10-23T07:16:38;100764.53;;;4.34;88.91
71476;BME280;59286;59.274;17.974;2022-10-23T07:19:06;100819.78;;;4.66;89.11
71476;BME280;59286;59.274;17.974;2022-10-23T07:21:33;100781.75;;;4.45;88.72
71476;BME280;59286;59.274;17.974;2022-10-23T07:23:59;100767.59;;;4.26;88.79
71476;BME280;59286;59.274;17.974;2022-10-23T07:26:25;100793.19;;;4.49;89.14
71476;BME280;59286;59.274;17.974;2022-10-23T07:28:51;100766.69;;;4.42;88.03
71476;BME280;59286;59.274;17.974;2022-10-23T07:31:20;100763.22;;;4.31;88.50
71476;BME280;59286;59.274;17.974;2022-10-23T07:33:46;100802.59;;;4.55;88.75
71476;BME280;59286;59.274;17.974;2022-10-23T07:36:11;100795.44;;;4.40;89.02
71476;BME280;59286;59.274;17.974;2022-10-23T07:38:36;100762.44;;;4.31;89.43
71476;BME280;59286;59.274;17.974;2022-10-23T07:41:03;100755.44;;;4.31;89.12
71476;BME280;59286;59.274;17.974;2022-10-23T07:43:29;100832.72;;;4.98;88.73
71476;BME280;59286;59.274;17.974;2022-10-23T07:45:54;100779.88;;;4.77;88.78
71476;BME280;59286;59.274;17.974;2022-10-23T07:48:20;100804.09;;;4.92;87.94
71476;BME280;59286;59.274;17.974;2022-10-23T07:50:48;100805.50;;;5.10;87.77
71476;BME280;59286;59.274;17.974;2022-10-23T07:53:17;100770.13;;;4.94;87.17
71476;BME280;59286;59.274;17.974;2022-10-23T07:55:51;100829.84;;;5.46;86.55
71476;BME280;59286;59.274;17.974;2022-10-23T07:58:20;100790.44;;;5.07;86.13
71476;BME280;59286;59.274;17.974;2022-10-23T08:00:46;100808.13;;;5.15;86.26
71476;BME280;59286;59.274;17.974;2022-10-23T08:03:17;100838.38;;;5.36;87.15
71476;BME280;59286;59.274;17.974;2022-10-23T08:05:43;100815.50;;;5.33;86.66
71476;BME280;59286;59.274;17.974;2022-10-23T08:08:08;100785.53;;;5.21;86.42
71476;BME280;59286;59.274;17.974;2022-10-23T08:10:34;100811.91;;;5.44;86.18
71476;BME280;59286;59.274;17.974;2022-10-23T08:12:59;100792.06;;;5.28;86.45
71476;BME280;59286;59.274;17.974;2022-10-23T08:15:25;100801.75;;;5.43;86.94
71476;BME280;59286;59.274;17.974;2022-10-23T08:17:50;100819.50;;;5.66;86.28
71476;BME280;59286;59.274;17.974;2022-10-23T08:20:16;100848.94;;;5.81;86.05
71476;BME280;59286;59.274;17.974;2022-10-23T08:22:41;100810.91;;;5.60;85.75
71476;BME280;59286;59.274;17.974;2022-10-23T08:25:07;100814.03;;;5.62;86.00
71476;BME280;59286;59.274;17.974;2022-10-23T08:27:33;100829.69;;;5.82;84.93
71476;BME280;59286;59.274;17.974;2022-10-23T08:29:58;100792.44;;;5.62;83.56
71476;BME280;59286;59.274;17.974;2022-10-23T08:32:27;100801.25;;;5.56;83.58
71476;BME280;59286;59.274;17.974;2022-10-23T08:34:54;100839.81;;;5.74;84.29
71476;BME280;59286;59.274;17.974;2022-10-23T08:37:20;100841.63;;;5.78;84.99
71476;BME280;59286;59.274;17.974;2022-10-23T08:39:45;100835.38;;;5.74;82.63
71476;BME280;59286;59.274;17.974;2022-10-23T08:42:19;100830.19;;;5.69;83.89
71476;BME280;59286;59.274;17.974;2022-10-23T08:44:51;100841.63;;;5.73;85.02
71476;BME280;59286;59.274;17.974;2022-10-23T08:47:35;100841.97;;;5.87;85.00
71476;BME280;59286;59.274;17.974;2022-10-23T08:50:11;100846.91;;;5.94;84.46
71476;BME280;59286;59.274;17.974;2022-10-23T08:55:15;100850.59;;;6.13;84.13
71476;BME280;59286;59.274;17.974;2022-10-23T08:58:03;100850.34;;;6.09;80.71
71476;BME280;59286;59.274;17.974;2022-10-23T09:00:30;100815.13;;;5.81;81.17
71476;BME280;59286;59.274;17.974;2022-10-23T09:03:00;100853.44;;;6.01;82.13
71476;BME280;59286;59.274;17.974;2022-10-23T09:08:37;100878.47;;;6.47;81.63
71476;BME280;59286;59.274;17.974;2022-10-23T09:11:18;100833.41;;;6.12;80.14
71476;BME280;59286;59.274;17.974;2022-10-23T09:13:59;100858.94;;;6.25;81.81
71476;BME280;59286;59.274;17.974;2022-10-23T09:19:11;100824.56;;;6.18;79.71
71476;BME280;59286;59.274;17.974;2022-10-23T09:21:38;100821.97;;;6.18;79.70
71476;BME280;59286;59.274;17.974;2022-10-23T09:24:04;100842.81;;;6.33;79.68
71476;BME280;59286;59.274;17.974;2022-10-23T09:26:32;100850.63;;;6.43;80.77
71476;BME280;59286;59.274;17.974;2022-10-23T09:29:06;100865.97;;;6.64;80.06
71476;BME280;59286;59.274;17.974;2022-10-23T09:31:56;100870.41;;;6.89;78.39
71476;BME280;59286;59.274;17.974;2022-10-23T09:34:24;100818.84;;;6.51;78.32
71476;BME280;59286;59.274;17.974;2022-10-23T09:36:56;100854.25;;;6.77;78.71
71476;BME280;59286;59.274;17.974;2022-10-23T09:39:29;100827.69;;;6.55;77.40
71476;BME280;59286;59.274;17.974;2022-10-23T09:41:55;100876.94;;;6.76;77.05
71476;BME280;59286;59.274;17.974;2022-10-23T09:44:31;100861.03;;;6.73;76.65
71476;BME280;59286;59.274;17.974;2022-10-23T09:47:09;100857.91;;;6.76;75.77
71476;BME280;59286;59.274;17.974;2022-10-23T09:49:39;100857.63;;;6.77;76.66
71476;BME280;59286;59.274;17.974;2022-10-23T09:57:24;100866.44;;;7.12;76.80
71476;BME280;59286;59.274;17.974;2022-10-23T09:59:54;100860.97;;;7.13;75.86
71476;BME280;59286;59.274;17.974;2022-10-23T10:02:27;100912.22;;;7.53;75.81
71476;BME280;59286;59.274;17.974;2022-10-23T10:04:53;100881.28;;;7.26;74.39
71476;BME280;59286;59.274;17.974;2022-10-23T10:07:28;100857.84;;;7.11;74.13
71476;BME280;59286;59.274;17.974;2022-10-23T10:09:55;100877.88;;;7.31;76.17
71476;BME280;59286;59.274;17.974;2022-10-23T10:15:20;100890.09;;;7.40;74.52
71476;BME280;59286;59.274;17.974;2022-10-23T10:17:52;100916.63;;;7.62;73.38
71476;BME280;59286;59.274;17.974;2022-10-23T10:30:21;100868.47;;;7.40;71.55
71476;BME280;59286;59.274;17.974;2022-10-23T10:33:08;100879.88;;;7.59;72.50
71476;BME280;59286;59.274;17.974;2022-10-23T10:35:51;100874.66;;;7.59;71.74
71476;BME280;59286;59.274;17.974;2022-10-23T10:38:49;100920.19;;;7.87;72.66
71476;BME280;59286;59.274;17.974;2022-10-23T10:46:43;100926.94;;;7.93;69.70
71476;BME280;59286;59.274;17.974;2022-10-23T10:49:42;100924.03;;;7.99;71.85
71476;BME280;59286;59.274;17.974;2022-10-23T10:52:22;100896.13;;;8.00;71.83
71476;BME280;59286;59.274;17.974;2022-10-23T10:55:19;100919.09;;;7.98;69.28
71476;BME280;59286;59.274;17.974;2022-10-23T10:58:02;100915.53;;;7.78;70.47
71476;BME280;59286;59.274;17.974;2022-10-23T11:00:32;100922.25;;;7.90;70.08
71476;BME280;59286;59.274;17.974;2022-10-23T11:03:01;100888.41;;;7.74;68.43
71476;BME280;59286;59.274;17.974;2022-10-23T11:05:38;100907.59;;;8.04;70.55
71476;BME280;59286;59.274;17.974;2022-10-23T11:10:40;100886.75;;;7.94;68.01
71476;BME280;59286;59.274;17.974;2022-10-23T11:13:21;100880.50;;;7.90;67.83
71476;BME280;59286;59.274;17.974;2022-10-23T11:15:49;100898.44;;;8.06;68.28
71476;BME280;59286;59.274;17.974;2022-10-23T11:18:23;100906.81;;;7.98;68.60
71476;BME280;59286;59.274;17.974;2022-10-23T11:23:47;100890.91;;;7.95;67.41
71476;BME280;59286;59.274;17.974;2022-10-23T11:37:23;100875.84;;;7.81;66.08
71476;BME280;59286;59.274;17.974;2022-10-23T11:40:00;100873.78;;;7.78;65.91
71476;BME280;59286;59.274;17.974;2022-10-23T11:42:53;100902.09;;;8.00;66.61
71476;BME280;59286;59.274;17.974;2022-10-23T11:45:35;100912.84;;;7.94;66.03
71476;BME280;59286;59.274;17.974;2022-10-23T11:50:31;100933.41;;;8.05;66.35
71476;BME280;59286;59.274;17.974;2022-10-23T11:53:05;100901.38;;;7.90;66.96
71476;BME280;59286;59.274;17.974;2022-10-23T11:58:53;100908.19;;;7.91;66.73
71476;BME280;59286;59.274;17.974;2022-10-23T12:01:38;100903.44;;;7.98;68.63
71476;BME280;59286;59.274;17.974;2022-10-23T12:06:49;100923.72;;;8.11;67.61
71476;BME280;59286;59.274;17.974;2022-10-23T12:14:40;100890.16;;;7.94;66.06
71476;BME280;59286;59.274;17.974;2022-10-23T12:19:51;100887.28;;;7.96;66.96
71476;BME280;59286;59.274;17.974;2022-10-23T12:22:18;100950.31;;;8.28;66.12
71476;BME280;59286;59.274;17.974;2022-10-23T12:25:02;100917.72;;;8.10;67.05
71476;BME280;59286;59.274;17.974;2022-10-23T12:27:51;100921.63;;;8.13;65.64
71476;BME280;59286;59.274;17.974;2022-10-23T12:30:41;100888.53;;;7.98;67.06
71476;BME280;59286;59.274;17.974;2022-10-23T12:33:26;100893.00;;;7.98;67.62
71476;BME280;59286;59.274;17.974;2022-10-23T12:36:12;100957.56;;;8.36;65.93
71476;BME280;59286;59.274;17.974;2022-10-23T12:38:46;100906.28;;;8.01;66.83
71476;BME280;59286;59.274;17.974;2022-10-23T12:41:16;100953.41;;;8.35;67.47
71476;BME280;59286;59.274;17.974;2022-10-23T12:43:49;100888.56;;;7.93;67.72
71476;BME280;59286;59.274;17.974;2022-10-23T12:48:56;100952.41;;;8.26;67.02
71476;BME280;59286;59.274;17.974;2022-10-23T12:51:26;100892.22;;;7.97;67.50
71476;BME280;59286;59.274;17.974;2022-10-23T12:53:52;100950.53;;;8.31;68.60
71476;BME280;59286;59.274;17.974;2022-10-23T12:56:18;100897.66;;;8.01;68.50
71476;BME280;59286;59.274;17.974;2022-10-23T12:58:51;100894.03;;;7.97;67.55
71476;BME280;59286;59.274;17.974;2022-10-23T13:01:29;100879.47;;;7.85;67.20
71476;BME280;59286;59.274;17.974;2022-10-23T13:06:42;100914.06;;;8.11;67.10
71476;BME280;59286;59.274;17.974;2022-10-23T13:09:23;100918.25;;;8.12;67.48
71476;BME280;59286;59.274;17.974;2022-10-23T13:11:51;100923.72;;;8.11;66.94
71476;BME280;59286;59.274;17.974;2022-10-23T13:14:36;100914.34;;;8.05;65.62
71476;BME280;59286;59.274;17.974;2022-10-23T13:17:04;100935.72;;;8.17;65.71
71476;BME280;59286;59.274;17.974;2022-10-23T13:19:30;100894.63;;;7.89;66.14
71476;BME280;59286;59.274;17.974;2022-10-23T13:21:56;100909.19;;;8.00;65.71
71476;BME280;59286;59.274;17.974;2022-10-23T13:24:26;100910.28;;;7.89;64.89
71476;BME280;59286;59.274;17.974;2022-10-23T13:26:52;100933.41;;;8.05;65.54
71476;BME280;59286;59.274;17.974;2022-10-23T13:29:20;100956.06;;;8.20;64.37
71476;BME280;59286;59.274;17.974;2022-10-23T13:31:49;100922.72;;;8.07;63.92
71476;BME280;59286;59.274;17.974;2022-10-23T13:36:55;100939.84;;;8.23;64.13
71476;BME280;59286;59.274;17.974;2022-10-23T13:39:24;100884.41;;;7.92;64.32
71476;BME280;59286;59.274;17.974;2022-10-23T13:41:50;100913.28;;;8.11;63.04
71476;BME280;59286;59.274;17.974;2022-10-23T13:44:18;100887.22;;;8.01;62.78
71476;BME280;59286;59.274;17.974;2022-10-23T13:46:44;100925.47;;;8.35;62.33
71476;BME280;59286;59.274;17.974;2022-10-23T13:49:12;100904.28;;;8.32;62.04
71476;BME280;59286;59.274;17.974;2022-10-23T13:51:41;100902.94;;;8.39;63.11
71476;BME280;59286;59.274;17.974;2022-10-23T13:54:13;100911.28;;;8.46;61.45
71476;BME280;59286;59.274;17.974;2022-10-23T13:56:39;100896.63;;;8.45;62.48
71476;BME280;59286;59.274;17.974;2022-10-23T13:59:04;100897.88;;;8.53;63.21
71476;BME280;59286;59.274;17.974;2022-10-23T14:01:33;100867.63;;;8.47;62.25
71476;BME280;59286;59.274;17.974;2022-10-23T14:04:00;100876.56;;;8.41;59.87
71476;BME280;59286;59.274;17.974;2022-10-23T14:06:29;100921.81;;;8.70;61.33
71476;BME280;59286;59.274;17.974;2022-10-23T14:08:54;100907.78;;;8.61;62.46
71476;BME280;59286;59.274;17.974;2022-10-23T14:11:20;100901.75;;;8.60;62.90
71476;BME280;59286;59.274;17.974;2022-10-23T14:13:46;100937.81;;;8.92;62.18
71476;BME280;59286;59.274;17.974;2022-10-23T14:16:13;100937.03;;;8.92;62.72
71476;BME280;59286;59.274;17.974;2022-10-23T14:18:39;100909.19;;;8.77;62.82
71476;BME280;59286;59.274;17.974;2022-10-23T14:21:06;100904.47;;;8.79;61.01
71476;BME280;59286;59.274;17.974;2022-10-23T14:23:32;100922.41;;;8.91;61.71
71476;BME280;59286;59.274;17.974;2022-10-23T14:26:05;100891.75;;;8.67;61.62
71476;BME280;59286;59.274;17.974;2022-10-23T14:28:31;100903.22;;;8.71;62.21
71476;BME280;59286;59.274;17.974;2022-10-23T14:30:56;100898.84;;;8.67;62.30